WetterOnline ( http://www.wetteronline.de )

Wetter aktuell Pinneberg

Aktuelles Wetter: Quickborn (17m)

6-stündlich | Neueste Meldungen
Ortszeit Temperatur Wetter
So, 20.01. 1:00 -6.3° C leicht bewölkt
Sa, 19.01. 19:00 -3.6° C leicht bewölkt
Sa, 19.01. 13:00 0.7° C leicht bewölkt
Sa, 19.01. 7:00 -5.5° C wolkig
Sa, 19.01. 1:00 -5.5° C Nebel
Fr, 18.01. 19:00 -2.8° C Nebel
Fr, 18.01. 13:00 0.5° C wolkig
Fr, 18.01. 7:00 -7.9° C wolkenlos
Ortszeit Temperatur Wetter
So, 20.01. 6:30 -5.0° C bedeckt
So, 20.01. 6:20 -5.0° C bedeckt
So, 20.01. 6:10 -5.2° C bedeckt
So, 20.01. 6:00 -5.4° C bedeckt
So, 20.01. 5:50 -5.4° C bedeckt
So, 20.01. 5:40 -5.6° C bedeckt
So, 20.01. 5:30 -5.6° C bedeckt
So, 20.01. 5:00 -6.9° C bedeckt
So, 20.01. 4:30 -6.8° C wolkig
So, 20.01. 4:00 -6.7° C fast wolkenlos
So, 20.01. 3:30 -6.6° C fast wolkenlos
Ortszeit Relative Feuchte Sichtweite
So, 20.01. 1:00 95% 2.5 km
Sa, 19.01. 19:00 96% 4.8 km
Sa, 19.01. 13:00 74% 11 km
Sa, 19.01. 7:00 93% 5.0 km
Sa, 19.01. 1:00 95% 0.9 km
Fr, 18.01. 19:00 96% 0.2 km
Fr, 18.01. 13:00 82% 30 km
Fr, 18.01. 7:00 95% 7 km
Ortszeit Relative Feuchte Sichtweite
So, 20.01. 6:30 95% 3.8 km
So, 20.01. 6:20 95% -
So, 20.01. 6:10 93% -
So, 20.01. 6:00 93% 4.1 km
So, 20.01. 5:50 93% -
So, 20.01. 5:40 93% -
So, 20.01. 5:30 94% 4.8 km
So, 20.01. 5:00 93% 4.0 km
So, 20.01. 4:30 92% 4.5 km
So, 20.01. 4:00 94% 4.9 km
So, 20.01. 3:30 94% 3.8 km
Ortszeit Niederschlagsmenge Niederschlagsart
So, 20.01. 1:00 0.0 l/m2 in 6 Std. -
Sa, 19.01. 19:00 0.0 l/m2 in 12 Std. -
Sa, 19.01. 13:00 0.0 l/m2 in 6 Std. -
Sa, 19.01. 7:00 0.0 l/m2 in 12 Std. -
Sa, 19.01. 1:00 0.0 l/m2 in 6 Std. -
Fr, 18.01. 19:00 0.2 l/m2 in 12 Std. Schnee, Regen
Fr, 18.01. 13:00 0.1 l/m2 in 6 Std. Sprühregen
Fr, 18.01. 7:00 6 l/m2 in 12 Std. -
Ortszeit Niederschlagsmenge Niederschlagsart
So, 20.01. 6:30 0.0 l/m2 in 1 Std. -
So, 20.01. 6:20 keine Meldung -
So, 20.01. 6:10 keine Meldung -
So, 20.01. 6:00 0.0 l/m2 in 1 Std. -
So, 20.01. 5:50 keine Meldung -
So, 20.01. 5:40 keine Meldung -
So, 20.01. 5:30 0.0 l/m2 in 1 Std. -
So, 20.01. 5:00 0.0 l/m2 in 1 Std. -
So, 20.01. 4:30 0.0 l/m2 in 1 Std. -
So, 20.01. 4:00 0.0 l/m2 in 1 Std. -
So, 20.01. 3:30 0.0 l/m2 in 1 Std. -
Ortszeit Stärke Spitze Richtung
km/h Bft. km/h Grad Sektor
So, 20.01. 1:00 2 1 7 50° NO
Sa, 19.01. 19:00 4 1 7 120° SO
Sa, 19.01. 13:00 4 1 7 160° S
Sa, 19.01. 7:00 4 1 7 180° S
Sa, 19.01. 1:00 6 1 9 200° S
Fr, 18.01. 19:00 6 1 20 190° S
Fr, 18.01. 13:00 4 1 14 210° SW
Fr, 18.01. 7:00 4 1 18 150° SO
Ortszeit Stärke Spitze Richtung
km/h Bft. km/h Grad Sektor
So, 20.01. 6:30 4 1 4 70° O
So, 20.01. 6:20 4 1 - 70° O
So, 20.01. 6:10 4 1 - 60° NO
So, 20.01. 6:00 4 1 4 50° NO
So, 20.01. 5:50 4 1 - 50° NO
So, 20.01. 5:40 4 1 - 50° NO
So, 20.01. 5:30 4 1 4 30° NO
So, 20.01. 5:00 4 1 4 60° NO
So, 20.01. 4:30 4 1 4 70° O
So, 20.01. 4:00 4 1 4 50° NO
So, 20.01. 3:30 4 1 4 40° NO
Ortszeit Untergrenze Bedeckung Gattung
total tief tief mittel hoch
So, 20.01. 1:00 2100 m 3/8 1/8 - - -
Sa, 19.01. 19:00 2400 m 3/8 1/8 - - -
Sa, 19.01. 13:00 9000 m 6/8 0/8 - - -
Sa, 19.01. 7:00 810 m 5/8 5/8 - - -
Sa, 19.01. 1:00 2100 m 5/8 - - - -
Fr, 18.01. 19:00 300 m 7/8 5/8 - - -
Fr, 18.01. 13:00 690 m 5/8 5/8 - - -
Fr, 18.01. 7:00 - 0/8 0/8 - - -
Ortszeit Bedeckungsgrad in Achtel und Wolkenuntergrenze
So, 20.01. 6:30 8(3900m)
So, 20.01. 6:20 8(3900m)
So, 20.01. 6:10 8(3900m)
So, 20.01. 6:00 8(3900m)
So, 20.01. 5:50 8(3900m)
So, 20.01. 5:40 8(3900m)
So, 20.01. 5:30 8(3900m)
So, 20.01. 5:00 8(3900m)
So, 20.01. 4:30 6(3900m)
So, 20.01. 4:00 1(2400m)
So, 20.01. 3:30 2(8100m)
Ortszeit Luftdruck NN (hPa) Tendenz (hPa in 3 Std.)
So, 20.01. 1:00 1018 0,0
Sa, 19.01. 19:00 1018 - 0,2
Sa, 19.01. 13:00 1020 - 0,5
Sa, 19.01. 7:00 1020 - 0,2
Sa, 19.01. 1:00 1020 + 0,2
Fr, 18.01. 19:00 1019 + 0,6
Fr, 18.01. 13:00 1017 + 1,1
Fr, 18.01. 7:00 1015 + 2,4
Ortszeit Luftdruck NN (hPa) Tendenz (hPa in 3 Std.)
So, 20.01. 6:30 1018 0,0
So, 20.01. 6:20 1018 keine Meldung
So, 20.01. 6:10 1018 keine Meldung
So, 20.01. 6:00 1018 - 0,1
So, 20.01. 5:50 1018 keine Meldung
So, 20.01. 5:40 1018 keine Meldung
So, 20.01. 5:30 1018 - 0,1
So, 20.01. 5:00 1018 - 0,2
So, 20.01. 4:30 1018 - 0,1
So, 20.01. 4:00 1018 0,0
So, 20.01. 3:30 1018 - 0,2
Ortszeit Schneehöhe (cm)
So, 20.01. 1:00 2
Sa, 19.01. 19:00 2
Sa, 19.01. 13:00 2
Sa, 19.01. 7:00 2
Sa, 19.01. 1:00 2
Fr, 18.01. 19:00 2
Fr, 18.01. 13:00 3
Fr, 18.01. 7:00 3
Ortszeit Schneehöhe (cm)
So, 20.01. 6:30 2
So, 20.01. 6:20 2
So, 20.01. 6:10 2
So, 20.01. 6:00 2
So, 20.01. 5:50 2
So, 20.01. 5:40 2
So, 20.01. 5:30 2
So, 20.01. 5:00 2
So, 20.01. 4:30 2
So, 20.01. 4:00 2
So, 20.01. 3:30 2
Link zu dieser Seite / Seite empfehlen

Das Wetter in ...